ADDS TAF Board (Experimental) INFO Settings
IDs: Format: Expanded Condensed

KTPA - Tampa Intl Arpt, FL, US

Issued at 1127 UTC 30 May 2015
Updated at: 1223 UTC 30 May 2015
Time1153Z 30/13Z 30/14Z 30/15Z 30/16Z 30/17Z 30/18Z 30/19Z 30/20Z 30/21Z 30/22Z 30/23Z 31/00Z 31/01Z
Type OBS PRVL PRVL PRVL PRVL PRVL PRVL PRVL PRVL PRVL PRVL PRVL PRVL PRVL
VIS 10 >6 >6 >6 >6 >6 >6 >6 >6 >6 >6 >6 >6 >6
CIG -- -- -- -- -- -- -- -- 250 250 250 250 250 250
Cover FEW FEW FEW FEW FEW SCT SCT SCT BKN BKN BKN BKN BKN BKN
FltCat VFR VFR VFR VFR VFR VFR VFR VFR VFR VFR VFR VFR VFR VFR
WX -- -- -- -- -- -- -- -- VCTS VCTS VCTS VCTS VCTS VCTS
WDir 40 80 80 80 80 240 240 240 300 300 300 300 300 300
WSpd 5 5 5 5 5 6 6 6 8 8 8 8 8 8
WGst -- -- -- -- -- -- -- -- -- -- -- -- -- --
R01/19
XWnd -3 -5 -5 -5 -5 5 5 5 7 7 7 7 7 7
HWnd 4 1 1 1 1 -3 -3 -3 4 4 4 4 4 4
R10/28
XWnd 4 1 1 1 1 -3 -3 -3 4 4 4 4 4 4
HWnd 3 5 5 5 5 -5 -5 -5 -7 -7 -7 -7 -7 -7

NOTE: TEMPO conditions in [brackets]. Keep in mind TEMPO conditions might be better (lower impact) than prevailing conditions.

Raw TAF
KTPA 301127Z 3012/3112 08005KT P6SM FEW250
  FM301700 24006KT P6SM SCT030 SCT250
  FM302000 30008KT P6SM VCTS SCT035CB BKN250
  FM310200 02005KT P6SM SCT035 BKN250
  FM310600 10005KT P6SM FEW040 SCT250


Raw METAR
KTPA 301153Z 04005KT 10SM FEW015 FEW250 24/19 A3009 RMK AO2 SLP189 T02390194 10250 20222 51011
KTPA 301053Z 03003KT 10SM FEW025 22/19 A3009 RMK AO2 SLP187 T02220194
KTPA 300953Z VRB03KT 10SM CLR 23/19 A3007 RMK AO2 SLP182 T02280194

METAR Board
Radar Display
Forecast Discussion

TAF Board Legend

Potential Impact
Threat None Slight Moderate High
Visibility (sm) ≥5.1 5.1>X≥3 3>X≥1 <1
Ceiling (100 ft) ≥30.1 30.1>X≥10 10>X≥5 <5
Wind Speed (kt) <10 10≤X<20 20≤X<30 ≥30
Wind Gust (kt) <15 15≤X<25 25≤X<35 ≥35
Weather No Wx Reported VCTS,-TS,-FZRA,SN TS,FZRA +TS,+FZRA,+SN